Time;durP1;ratioP1;P1;durP2;ratioP2;P2;SDS_P1;SDS_P2;PMS_P1;PMS_P2;Temp;Humidity;BMP_temperature;BMP_pressure;BME280_temperature;BME280_humidity;BME280_pressure;Samples;Min_cycle;Max_cycle;Signal;HPM_P1;HPM_P2
2024/01/28 08:36:18;;;;;;;23.08;15.38;;;11.10;77.30;;;;;;5046968;28;20078;-69
2024/01/28 08:38:44;;;;;;;23.83;15.90;;;11.30;76.10;;;;;;5046779;28;20045;-73
2024/01/28 08:41:10;;;;;;;23.17;16.23;;;11.40;76.00;;;;;;5057690;28;20118;-70
2024/01/28 08:43:35;;;;;;;22.45;15.10;;;11.50;75.80;;;;;;5061257;28;20033;-70
2024/01/28 08:46:03;;;;;;;19.50;14.10;;;11.40;75.60;;;;;;5064422;28;20041;-72
2024/01/28 08:48:29;;;;;;;19.10;13.98;;;11.40;75.60;;;;;;5071312;28;20048;-72
2024/01/28 08:50:55;;;;;;;24.85;16.55;;;11.40;75.70;;;;;;5053379;28;20034;-74
2024/01/28 08:53:21;;;;;;;23.88;15.75;;;11.40;75.80;;;;;;5051454;28;20036;-71
2024/01/28 08:55:46;;;;;;;21.70;15.93;;;11.40;75.10;;;;;;5071498;28;20366;-70
2024/01/28 08:58:12;;;;;;;19.63;14.82;;;11.50;75.60;;;;;;5070961;28;20032;-71
2024/01/28 09:00:39;;;;;;;22.60;15.32;;;11.60;75.10;;;;;;5055781;28;20051;-71
2024/01/28 09:03:05;;;;;;;17.75;13.88;;;11.70;74.70;;;;;;5051410;28;20041;-71
2024/01/28 09:05:31;;;;;;;21.20;15.05;;;11.70;74.40;;;;;;5051276;28;20112;-70
2024/01/28 09:07:57;;;;;;;19.88;15.98;;;11.80;74.30;;;;;;5051156;28;20064;-71
2024/01/28 09:10:23;;;;;;;19.55;15.75;;;12.00;73.70;;;;;;5051196;28;20445;-70
2024/01/28 09:12:49;;;;;;;19.75;14.75;;;12.00;73.20;;;;;;5051292;28;20029;-72
2024/01/28 09:15:15;;;;;;;23.05;14.48;;;12.00;72.90;;;;;;5051286;28;20104;-71
2024/01/28 09:17:42;;;;;;;17.75;13.27;;;11.90;72.70;;;;;;5051021;28;20537;-70
2024/01/28 09:20:09;;;;;;;17.20;13.63;;;11.90;72.70;;;;;;5067347;28;20033;-70
2024/01/28 09:22:35;;;;;;;17.15;12.90;;;11.90;71.80;;;;;;5075428;28;20036;-70
2024/01/28 09:25:03;;;;;;;16.70;11.75;;;11.80;72.20;;;;;;5075142;28;20506;-70
2024/01/28 09:27:29;;;;;;;16.30;12.65;;;11.90;71.90;;;;;;5075023;28;20124;-71
2024/01/28 09:29:55;;;;;;;22.60;12.48;;;12.00;71.40;;;;;;5065499;28;20056;-71
2024/01/28 09:32:21;;;;;;;20.52;13.38;;;11.90;71.20;;;;;;5020756;28;20029;-71
2024/01/28 09:34:46;;;;;;;17.67;12.68;;;12.00;71.90;;;;;;5064147;28;20074;-72
2024/01/28 09:37:13;;;;;;;20.02;13.60;;;12.20;71.60;;;;;;5056173;28;20041;-72
2024/01/28 09:39:38;;;;;;;16.73;12.95;;;12.40;71.10;;;;;;5044087;28;20042;-71
2024/01/28 09:42:07;;;;;;;19.10;13.35;;;12.40;70.40;;;;;;5045474;28;20509;-71
2024/01/28 09:44:33;;;;;;;19.38;14.27;;;12.40;70.90;;;;;;5055374;28;20394;-70
2024/01/28 09:46:59;;;;;;;17.50;13.00;;;12.50;70.90;;;;;;5054480;28;20029;-71
2024/01/28 09:49:27;;;;;;;16.08;12.77;;;12.50;70.50;;;;;;5048614;28;20754;-69
2024/01/28 09:51:53;;;;;;;17.75;12.55;;;12.40;70.50;;;;;;5053967;28;20091;-72
2024/01/28 09:54:19;;;;;;;19.65;13.77;;;12.50;70.70;;;;;;5043826;28;20498;-72
2024/01/28 09:56:46;;;;;;;17.65;13.15;;;12.50;70.70;;;;;;5060254;28;20496;-71
2024/01/28 09:59:16;;;;;;;24.30;13.75;;;12.50;70.50;;;;;;5074092;28;20123;-71
2024/01/28 10:01:42;;;;;;;18.65;13.32;;;12.50;70.60;;;;;;5075085;28;20566;-71
2024/01/28 10:04:10;;;;;;;17.83;13.40;;;12.50;70.50;;;;;;5075291;28;20478;-72
2024/01/28 10:06:36;;;;;;;18.65;12.55;;;12.60;70.20;;;;;;5061667;28;20029;-72
2024/01/28 10:09:02;;;;;;;16.77;13.40;;;12.70;70.20;;;;;;5043731;28;20086;-71
2024/01/28 10:11:28;;;;;;;18.45;13.93;;;12.70;70.60;;;;;;5034550;28;20036;-71
2024/01/28 10:13:54;;;;;;;16.92;13.25;;;12.80;69.80;;;;;;5034672;28;20048;-72
2024/01/28 10:16:24;;;;;;;20.73;13.68;;;12.80;69.40;;;;;;5034936;28;20026;-71
2024/01/28 10:18:49;;;;;;;17.98;13.30;;;12.80;69.40;;;;;;5034810;28;20484;-72
2024/01/28 10:21:15;;;;;;;17.23;13.88;;;12.80;69.50;;;;;;5041562;28;20037;-72
2024/01/28 10:23:43;;;;;;;19.48;12.60;;;12.80;69.30;;;;;;5044874;28;20044;-71
2024/01/28 10:26:09;;;;;;;17.90;14.30;;;12.90;69.10;;;;;;5053391;28;20362;-72
2024/01/28 10:28:38;;;;;;;18.08;13.25;;;13.00;69.00;;;;;;5054631;28;20045;-70
2024/01/28 10:31:03;;;;;;;20.85;13.73;;;13.20;68.70;;;;;;5053979;28;20150;-72
2024/01/28 10:33:29;;;;;;;17.88;12.20;;;13.40;68.50;;;;;;5053823;28;20424;-71
2024/01/28 10:36:03;;;;;;;17.25;11.93;;;13.60;68.10;;;;;;5054402;28;20037;-74
2024/01/28 10:38:32;;;;;;;17.10;11.77;;;13.70;67.40;;;;;;5072488;28;20131;-75
2024/01/28 10:40:59;;;;;;;19.10;10.90;;;13.80;67.00;;;;;;5074779;28;20028;-75
2024/01/28 10:43:38;;;;;;;14.68;11.48;;;13.80;66.60;;;;;;5072083;28;20082;-73
2024/01/28 10:46:06;;;;;;;14.77;11.25;;;13.80;66.70;;;;;;5072309;28;20425;-78
2024/01/28 10:48:34;;;;;;;17.40;11.43;;;13.90;66.90;;;;;;5071016;28;20052;-72
2024/01/28 10:51:01;;;;;;;15.70;12.07;;;13.90;66.70;;;;;;5062966;28;20388;-73
2024/01/28 10:53:28;;;;;;;15.93;11.48;;;14.00;66.80;;;;;;5064468;28;20113;-75
2024/01/28 10:55:54;;;;;;;15.57;12.07;;;14.10;66.20;;;;;;5074011;28;20031;-75
2024/01/28 10:58:21;;;;;;;19.35;11.98;;;14.20;66.00;;;;;;5074097;28;20044;-74
2024/01/28 11:00:47;;;;;;;15.73;11.07;;;14.30;66.00;;;;;;5074288;28;20064;-75
2024/01/28 11:03:13;;;;;;;14.80;11.43;;;14.40;65.60;;;;;;5052906;28;20383;-75
2024/01/28 11:05:40;;;;;;;15.32;11.65;;;14.40;65.60;;;;;;5073917;28;20087;-73
2024/01/28 11:08:06;;;;;;;15.25;11.77;;;14.50;65.20;;;;;;5073652;28;20044;-74
2024/01/28 11:10:33;;;;;;;20.52;12.63;;;14.50;65.20;;;;;;5073548;28;20557;-74
2024/01/28 11:13:02;;;;;;;16.42;12.45;;;14.60;65.00;;;;;;5074099;28;20033;-73
2024/01/28 11:15:30;;;;;;;16.23;11.88;;;14.60;64.50;;;;;;5067503;28;20107;-73
2024/01/28 11:17:56;;;;;;;18.15;11.85;;;14.50;64.90;;;;;;5061200;28;20051;-72
2024/01/28 11:20:24;;;;;;;16.15;12.38;;;14.50;65.20;;;;;;5065486;28;20490;-71
2024/01/28 11:22:52;;;;;;;15.98;12.07;;;14.50;65.00;;;;;;5073540;28;20056;-75
2024/01/28 11:25:20;;;;;;;16.13;12.23;;;14.60;64.90;;;;;;5073283;28;20119;-74
2024/01/28 11:27:47;;;;;;;17.38;11.95;;;14.60;64.80;;;;;;5072421;28;20135;-75
2024/01/28 11:30:13;;;;;;;17.98;13.05;;;14.60;64.80;;;;;;5071029;28;20382;-76
2024/01/28 11:32:41;;;;;;;17.45;12.73;;;14.70;65.40;;;;;;5069137;28;20037;-76
2024/01/28 11:35:07;;;;;;;17.38;12.25;;;14.90;65.80;;;;;;5073370;28;20032;-75
2024/01/28 11:37:43;;;;;;;17.85;12.77;;;14.90;66.20;;;;;;5072168;28;20118;-74
2024/01/28 11:40:28;;;;;;;17.38;12.95;;;15.00;65.50;;;;;;5073016;28;20051;-73
2024/01/28 11:42:56;;;;;;;17.05;11.15;;;15.10;65.50;;;;;;5054338;28;20486;-77
2024/01/28 11:45:22;;;;;;;17.67;10.63;;;15.20;66.00;;;;;;5073281;28;20398;-75
2024/01/28 11:47:48;;;;;;;17.48;12.52;;;15.30;65.50;;;;;;5073176;28;20036;-77
2024/01/28 11:50:14;;;;;;;14.23;11.25;;;15.30;65.50;;;;;;5072625;28;20517;-75
2024/01/28 11:52:40;;;;;;;17.77;12.98;;;15.40;65.80;;;;;;5072965;28;20481;-75
2024/01/28 11:55:24;;;;;;;14.65;10.63;;;15.50;65.30;;;;;;5055229;28;20032;-74
2024/01/28 11:57:49;;;;;;;14.60;10.55;;;15.70;65.60;;;;;;5072731;28;20063;-72
2024/01/28 12:00:16;;;;;;;15.40;10.70;;;15.70;65.20;;;;;;5072730;28;20486;-72
2024/01/28 12:02:43;;;;;;;16.55;10.35;;;15.80;65.40;;;;;;5072749;28;20502;-71
2024/01/28 12:05:09;;;;;;;15.95;10.60;;;15.80;64.50;;;;;;5072792;28;20086;-73
2024/01/28 12:07:37;;;;;;;13.43;9.93;;;15.80;64.50;;;;;;5072810;28;20117;-73
2024/01/28 12:10:07;;;;;;;16.70;10.57;;;15.90;64.50;;;;;;5072544;28;20170;-72
2024/01/28 12:12:34;;;;;;;15.85;10.73;;;15.90;64.50;;;;;;5072806;28;20028;-73
2024/01/28 12:15:03;;;;;;;14.40;10.30;;;16.00;64.50;;;;;;5073094;28;20040;-73
2024/01/28 12:17:36;;;;;;;13.98;9.88;;;16.10;64.50;;;;;;5073071;28;20401;-69
2024/01/28 12:20:04;;;;;;;15.65;9.43;;;16.10;63.80;;;;;;5072900;28;20486;-78
2024/01/28 12:22:36;;;;;;;14.90;9.60;;;16.10;64.10;;;;;;5072377;28;20093;-76
2024/01/28 12:25:12;;;;;;;15.23;10.30;;;16.10;63.30;;;;;;5079412;22;20059;-75
2024/01/28 12:27:40;;;;;;;14.95;9.50;;;16.20;64.00;;;;;;5072547;28;20033;-72
2024/01/28 12:30:09;;;;;;;14.45;9.93;;;16.30;63.00;;;;;;5072730;28;20063;-73
2024/01/28 12:32:38;;;;;;;15.13;9.82;;;16.40;63.20;;;;;;5071994;28;20107;-72
2024/01/28 12:35:09;;;;;;;13.18;9.07;;;16.40;62.50;;;;;;5074667;28;20493;-74
2024/01/28 12:37:37;;;;;;;13.88;9.40;;;16.50;62.60;;;;;;5064227;28;20466;-75
2024/01/28 12:40:03;;;;;;;13.27;9.43;;;16.50;61.50;;;;;;5063415;28;20029;-79
2024/01/28 12:42:31;;;;;;;12.23;9.23;;;16.50;62.00;;;;;;5062673;28;20060;-75
2024/01/28 12:44:57;;;;;;;13.77;9.65;;;16.60;61.90;;;;;;5072417;28;20035;-74
2024/01/28 12:47:23;;;;;;;14.05;9.98;;;16.60;61.60;;;;;;5069794;28;20107;-72
2024/01/28 12:49:49;;;;;;;13.57;9.02;;;16.70;61.40;;;;;;5065405;28;20462;-72
2024/01/28 12:52:14;;;;;;;16.65;10.25;;;16.80;61.70;;;;;;5071980;28;20024;-73
2024/01/28 12:54:40;;;;;;;11.93;9.05;;;16.90;62.10;;;;;;5071855;28;20453;-73
2024/01/28 12:57:06;;;;;;;13.85;9.00;;;16.90;61.50;;;;;;5072103;28;20063;-75
2024/01/28 12:59:31;;;;;;;14.93;9.63;;;17.00;60.90;;;;;;5053695;28;20105;-73
2024/01/28 13:01:57;;;;;;;12.52;9.20;;;16.90;60.50;;;;;;5071661;28;20107;-73
2024/01/28 13:04:23;;;;;;;12.93;9.20;;;16.80;60.30;;;;;;5071684;28;20037;-72
2024/01/28 13:06:49;;;;;;;12.40;9.02;;;16.80;60.30;;;;;;5071611;28;20021;-71
2024/01/28 13:09:15;;;;;;;12.77;9.40;;;16.80;60.10;;;;;;5071845;28;20051;-73
2024/01/28 13:11:41;;;;;;;12.98;9.07;;;16.80;60.10;;;;;;5071705;28;20024;-73
2024/01/28 13:14:07;;;;;;;16.30;9.07;;;16.80;60.20;;;;;;5071673;28;20048;-80
2024/01/28 13:16:32;;;;;;;12.88;8.82;;;17.00;60.50;;;;;;5071748;28;20052;-77
2024/01/28 13:18:58;;;;;;;12.65;9.25;;;17.10;60.30;;;;;;5071277;28;20067;-77
2024/01/28 13:21:24;;;;;;;12.48;10.18;;;17.10;60.10;;;;;;5071759;28;20055;-76
2024/01/28 13:23:49;;;;;;;11.88;9.05;;;17.20;60.20;;;;;;5071995;28;20036;-75
2024/01/28 13:26:18;;;;;;;11.98;9.05;;;17.30;60.10;;;;;;5086675;28;20040;-76
2024/01/28 13:28:44;;;;;;;11.85;8.20;;;17.30;59.90;;;;;;5071401;28;20040;-78
2024/01/28 13:31:10;;;;;;;13.63;8.50;;;17.40;59.70;;;;;;5071663;28;20033;-79
2024/01/28 13:33:36;;;;;;;10.35;7.43;;;17.40;59.20;;;;;;5071268;28;20103;-74
2024/01/28 13:36:01;;;;;;;11.10;7.18;;;17.40;59.10;;;;;;5053987;28;20029;-83
2024/01/28 13:38:27;;;;;;;12.32;8.23;;;17.50;58.10;;;;;;5070276;28;20036;-78
2024/01/28 13:40:53;;;;;;;10.60;7.57;;;17.50;57.70;;;;;;5071586;28;20037;-76
2024/01/28 13:43:19;;;;;;;10.68;7.07;;;17.50;57.40;;;;;;5071874;28;20063;-76
2024/01/28 13:45:45;;;;;;;11.27;7.28;;;17.50;56.80;;;;;;5071605;28;20431;-74
2024/01/28 13:48:10;;;;;;;11.73;7.40;;;17.50;56.30;;;;;;5074667;28;20418;-76
2024/01/28 13:50:36;;;;;;;12.02;7.50;;;17.60;56.30;;;;;;5074767;28;20115;-74
2024/01/28 13:53:02;;;;;;;12.75;7.60;;;17.50;56.00;;;;;;5071745;28;20112;-74
2024/01/28 13:55:28;;;;;;;12.00;7.55;;;17.60;56.00;;;;;;5072231;28;20024;-75
2024/01/28 13:57:55;;;;;;;11.40;7.70;;;17.50;55.90;;;;;;5071625;28;20040;-76
2024/01/28 14:00:20;;;;;;;11.98;8.00;;;17.30;56.50;;;;;;5071470;28;20082;-74
2024/01/28 14:02:46;;;;;;;12.10;7.47;;;17.40;56.40;;;;;;5072816;28;20393;-75
2024/01/28 14:05:13;;;;;;;12.60;7.82;;;17.40;56.30;;;;;;5062570;28;20039;-79
2024/01/28 14:07:39;;;;;;;12.38;7.55;;;17.40;56.30;;;;;;5074610;28;20108;-77
2024/01/28 14:10:05;;;;;;;12.07;7.95;;;17.50;56.00;;;;;;5074291;28;20477;-74
2024/01/28 14:12:31;;;;;;;10.93;7.32;;;17.50;56.00;;;;;;5074684;28;20035;-77
2024/01/28 14:14:57;;;;;;;14.18;7.18;;;17.50;57.30;;;;;;5074693;28;20029;-74
2024/01/28 14:17:22;;;;;;;18.02;8.15;;;17.50;58.30;;;;;;5074959;28;20036;-74
2024/01/28 14:19:48;;;;;;;12.40;8.00;;;17.60;60.10;;;;;;5074723;28;20120;-77
2024/01/28 14:22:14;;;;;;;15.65;7.95;;;17.60;62.00;;;;;;5074560;28;20033;-74
2024/01/28 14:24:40;;;;;;;11.32;6.88;;;17.50;62.80;;;;;;5074745;28;20550;-74
2024/01/28 14:27:05;;;;;;;14.32;7.72;;;17.60;63.30;;;;;;5075085;28;20041;-74
2024/01/28 14:29:31;;;;;;;14.82;7.20;;;17.50;63.80;;;;;;5074366;28;20095;-73
2024/01/28 14:31:57;;;;;;;13.02;7.70;;;17.40;64.40;;;;;;5074689;28;20033;-72
2024/01/28 14:34:23;;;;;;;10.60;6.82;;;17.30;65.10;;;;;;5056867;28;20036;-72
2024/01/28 14:36:48;;;;;;;14.77;7.10;;;17.20;65.80;;;;;;5074550;28;20090;-73
2024/01/28 14:39:14;;;;;;;14.18;7.47;;;17.30;66.50;;;;;;5074858;28;20032;-72
2024/01/28 14:41:40;;;;;;;13.48;7.10;;;17.20;66.80;;;;;;5081978;28;20062;-72
2024/01/28 14:44:06;;;;;;;10.50;6.78;;;17.30;67.20;;;;;;5082197;28;20040;-73
2024/01/28 14:46:33;;;;;;;15.75;7.53;;;17.30;67.20;;;;;;5072693;28;20048;-72
2024/01/28 14:48:59;;;;;;;13.90;7.60;;;17.30;67.40;;;;;;5072503;28;20036;-72
2024/01/28 14:51:24;;;;;;;13.10;7.55;;;17.30;67.80;;;;;;5073999;28;20103;-72
2024/01/28 14:53:51;;;;;;;12.30;6.82;;;17.20;67.80;;;;;;5074210;28;20089;-72
2024/01/28 14:56:17;;;;;;;12.88;7.53;;;17.20;68.10;;;;;;5074594;28;20032;-71
2024/01/28 14:58:42;;;;;;;17.60;7.80;;;17.20;68.20;;;;;;5074327;28;20094;-71
2024/01/28 15:01:08;;;;;;;15.90;7.65;;;17.10;68.60;;;;;;5074026;28;20033;-71
2024/01/28 15:03:34;;;;;;;13.40;7.43;;;17.00;68.70;;;;;;5074168;28;20055;-71
2024/01/28 15:06:00;;;;;;;12.05;6.43;;;16.90;68.90;;;;;;5074165;28;20063;-72
2024/01/28 15:08:26;;;;;;;9.80;6.40;;;16.90;69.20;;;;;;5074016;28;20382;-71
2024/01/28 15:10:52;;;;;;;12.60;7.50;;;16.80;69.40;;;;;;5074260;28;20113;-73
2024/01/28 15:13:17;;;;;;;12.25;6.80;;;16.70;69.70;;;;;;5073826;28;20032;-72
2024/01/28 15:15:43;;;;;;;11.00;6.65;;;16.70;69.90;;;;;;5073895;28;20490;-72
2024/01/28 15:18:09;;;;;;;11.18;6.93;;;16.70;70.20;;;;;;5072628;28;20107;-72
2024/01/28 15:20:35;;;;;;;13.80;7.35;;;16.60;70.20;;;;;;5073785;28;20036;-71
2024/01/28 15:23:00;;;;;;;15.73;7.72;;;16.60;70.30;;;;;;5073998;28;20028;-72
2024/01/28 15:25:26;;;;;;;14.45;7.60;;;16.50;70.70;;;;;;5073416;28;20049;-72
2024/01/28 15:27:52;;;;;;;13.32;7.40;;;16.50;71.00;;;;;;5073399;28;20556;-72
2024/01/28 15:30:17;;;;;;;16.05;7.95;;;16.40;71.10;;;;;;5073526;28;20131;-72
2024/01/28 15:32:43;;;;;;;13.20;7.22;;;16.40;71.50;;;;;;5073826;28;20025;-72
2024/01/28 15:35:09;;;;;;;12.13;7.70;;;16.40;71.70;;;;;;5073304;28;20036;-73
2024/01/28 15:37:36;;;;;;;13.52;7.50;;;16.30;71.90;;;;;;5073111;28;20035;-72
2024/01/28 15:40:02;;;;;;;15.65;8.00;;;16.30;72.20;;;;;;5073644;28;20087;-72
2024/01/28 15:42:28;;;;;;;13.70;7.50;;;16.30;72.30;;;;;;5073022;28;20067;-73
2024/01/28 15:44:56;;;;;;;13.07;7.55;;;16.20;72.40;;;;;;5073568;28;20067;-71
2024/01/28 15:47:23;;;;;;;11.98;8.05;;;16.20;72.80;;;;;;5073321;28;20037;-72
2024/01/28 15:49:49;;;;;;;17.15;7.93;;;16.10;73.00;;;;;;5072910;28;20120;-72
2024/01/28 15:52:14;;;;;;;14.93;8.02;;;16.00;73.20;;;;;;5073202;28;20509;-72
2024/01/28 15:54:41;;;;;;;12.10;7.57;;;15.90;73.60;;;;;;5055242;28;20043;-71
2024/01/28 15:57:06;;;;;;;20.13;13.68;;;15.90;73.90;;;;;;5073249;28;20024;-74
2024/01/28 15:59:32;;;;;;;16.48;11.48;;;15.80;74.30;;;;;;5073069;28;20434;-73
2024/01/28 16:01:58;;;;;;;17.30;8.98;;;15.70;74.50;;;;;;5073016;28;20036;-73
2024/01/28 16:04:24;;;;;;;16.45;10.57;;;15.60;74.70;;;;;;5073192;28;20425;-76
2024/01/28 16:06:49;;;;;;;15.05;9.48;;;15.60;75.00;;;;;;5073042;28;20119;-72
2024/01/28 16:09:15;;;;;;;14.93;8.32;;;15.50;75.30;;;;;;5083157;28;20546;-73
2024/01/28 16:11:41;;;;;;;16.88;8.40;;;15.40;75.50;;;;;;5072268;28;20082;-76
2024/01/28 16:14:07;;;;;;;15.70;9.02;;;15.30;75.80;;;;;;5072650;28;20107;-74
2024/01/28 16:16:32;;;;;;;16.30;9.02;;;15.30;76.10;;;;;;5072916;28;20551;-71
2024/01/28 16:18:58;;;;;;;17.75;8.95;;;15.20;76.20;;;;;;5072541;28;20059;-72
2024/01/28 16:21:24;;;;;;;18.33;8.63;;;15.10;76.40;;;;;;5072387;28;20028;-72
2024/01/28 16:23:50;;;;;;;13.90;8.35;;;15.10;76.70;;;;;;5072336;28;20040;-76
2024/01/28 16:26:15;;;;;;;15.65;8.65;;;15.00;76.90;;;;;;5072238;28;20509;-74
2024/01/28 16:28:41;;;;;;;18.40;9.75;;;14.90;77.10;;;;;;5063922;28;20449;-72
2024/01/28 16:31:07;;;;;;;14.30;9.02;;;14.90;77.50;;;;;;5071221;28;20071;-73
2024/01/28 16:33:33;;;;;;;15.23;9.25;;;14.80;77.70;;;;;;5070741;28;20028;-72
2024/01/28 16:35:58;;;;;;;15.50;9.55;;;14.80;77.80;;;;;;5071033;28;20066;-72
2024/01/28 16:38:24;;;;;;;16.55;8.63;;;14.70;78.10;;;;;;5065617;28;20032;-72
2024/01/28 16:40:50;;;;;;;15.90;9.38;;;14.70;78.80;;;;;;5051942;28;20064;-72
2024/01/28 16:43:15;;;;;;;15.90;8.70;;;14.70;78.40;;;;;;5033990;28;20132;-71
2024/01/28 16:45:43;;;;;;;12.57;8.90;;;14.60;78.70;;;;;;5051753;28;20062;-73
2024/01/28 16:48:09;;;;;;;15.85;9.52;;;14.60;78.80;;;;;;5068422;28;20037;-73
2024/01/28 16:50:36;;;;;;;15.90;8.95;;;14.50;78.90;;;;;;5068954;28;20055;-73
2024/01/28 16:53:02;;;;;;;13.68;8.93;;;14.50;79.00;;;;;;5071444;28;20409;-74
2024/01/28 16:55:30;;;;;;;16.02;9.27;;;14.40;79.20;;;;;;5071754;28;20512;-73
2024/01/28 16:58:05;;;;;;;16.52;9.15;;;14.40;79.50;;;;;;5069505;28;20397;-76
2024/01/28 17:00:32;;;;;;;20.17;11.30;;;14.40;79.70;;;;;;5052310;28;20479;-78
2024/01/28 17:02:58;;;;;;;15.98;10.60;;;14.30;79.80;;;;;;5052736;28;20460;-79
2024/01/28 17:05:23;;;;;;;17.13;9.45;;;14.20;79.70;;;;;;5053660;28;20032;-78
2024/01/28 17:07:49;;;;;;;17.25;10.40;;;14.20;80.00;;;;;;5071750;28;20041;-78
2024/01/28 17:10:15;;;;;;;16.13;10.15;;;14.20;80.20;;;;;;5077957;28;20045;-79
2024/01/28 17:12:41;;;;;;;17.30;10.98;;;14.10;80.40;;;;;;5071686;28;20039;-77
2024/01/28 17:15:06;;;;;;;18.73;10.02;;;14.10;80.60;;;;;;5052914;28;20449;-77
2024/01/28 17:17:32;;;;;;;15.05;11.13;;;14.00;80.90;;;;;;5051386;28;20033;-78
2024/01/28 17:19:58;;;;;;;16.77;10.30;;;14.00;81.10;;;;;;5069830;28;20048;-81
2024/01/28 17:22:24;;;;;;;20.00;10.82;;;14.00;81.30;;;;;;5071828;28;20089;-79
2024/01/28 17:24:50;;;;;;;19.67;11.50;;;13.90;81.40;;;;;;5069974;28;20047;-78
2024/01/28 17:27:15;;;;;;;19.42;12.85;;;13.90;81.80;;;;;;5071918;28;20029;-79
2024/01/28 17:29:41;;;;;;;21.23;13.27;;;13.80;81.80;;;;;;5054826;28;20052;-81
2024/01/28 17:32:07;;;;;;;27.98;17.73;;;13.80;82.00;;;;;;5051691;28;20525;-75
2024/01/28 17:34:33;;;;;;;21.10;13.57;;;13.80;82.20;;;;;;5051594;28;20055;-76
2024/01/28 17:36:59;;;;;;;18.52;12.10;;;13.80;82.40;;;;;;5068372;28;20490;-76
2024/01/28 17:39:27;;;;;;;17.98;11.80;;;13.80;82.70;;;;;;5064618;28;20128;-77
2024/01/28 17:41:53;;;;;;;17.15;11.82;;;13.70;82.80;;;;;;5073567;28;20082;-77
2024/01/28 17:44:18;;;;;;;19.58;12.00;;;13.70;82.80;;;;;;5075846;28;20476;-78
2024/01/28 17:46:44;;;;;;;20.67;13.00;;;13.70;83.10;;;;;;5076091;28;20033;-79
2024/01/28 17:49:10;;;;;;;22.58;15.57;;;13.70;83.30;;;;;;5076370;28;20484;-83
2024/01/28 17:51:36;;;;;;;23.08;13.90;;;13.70;83.50;;;;;;5076657;28;20039;-78
2024/01/28 17:54:02;;;;;;;22.08;14.10;;;13.70;83.60;;;;;;5080093;28;20489;-83
2024/01/28 17:56:28;;;;;;;21.60;13.15;;;13.60;83.60;;;;;;5059466;28;20031;-89
2024/01/28 17:58:54;;;;;;;23.70;14.18;;;13.60;83.80;;;;;;5086815;28;20375;-86
2024/01/28 18:01:19;;;;;;;23.45;13.23;;;13.60;84.10;;;;;;5061854;28;20096;-85
2024/01/28 18:03:45;;;;;;;18.95;12.07;;;13.50;84.30;;;;;;5064224;28;20549;-88
2024/01/28 18:06:12;;;;;;;22.08;14.02;;;13.50;84.40;;;;;;5077068;28;20037;-86
2024/01/28 18:08:38;;;;;;;22.15;13.80;;;13.50;84.70;;;;;;5061772;28;20151;-87
2024/01/28 18:11:04;;;;;;;21.83;14.05;;;13.50;84.80;;;;;;5081134;28;20040;-88
2024/01/28 18:13:30;;;;;;;22.73;13.65;;;13.50;84.90;;;;;;5079044;28;20029;-88
2024/01/28 18:15:57;;;;;;;19.90;14.20;;;13.50;85.10;;;;;;5081656;28;20141;-87
2024/01/28 18:18:23;;;;;;;22.65;15.02;;;13.50;85.30;;;;;;5065657;28;20039;-88
2024/01/28 18:20:48;;;;;;;20.48;14.70;;;13.40;85.40;;;;;;5080415;28;20057;-81
2024/01/28 18:23:14;;;;;;;22.23;14.13;;;13.40;85.50;;;;;;5077558;28;20028;-80
2024/01/28 18:25:40;;;;;;;19.92;14.85;;;13.40;85.80;;;;;;5075911;28;20048;-84
2024/01/28 18:28:08;;;;;;;19.48;14.77;;;13.40;85.90;;;;;;5070809;28;20056;-81
2024/01/28 18:30:34;;;;;;;27.52;16.30;;;13.40;86.20;;;;;;5061208;28;20059;-81
2024/01/28 18:33:00;;;;;;;23.05;17.23;;;13.40;86.40;;;;;;5063843;28;20035;-82
2024/01/28 18:35:27;;;;;;;25.80;17.23;;;13.30;86.40;;;;;;5084343;28;20104;-81
2024/01/28 18:37:54;;;;;;;24.75;16.80;;;13.30;86.70;;;;;;5075106;28;20052;-82
2024/01/28 18:40:20;;;;;;;24.17;17.73;;;13.30;87.00;;;;;;5056816;28;20443;-81
2024/01/28 18:42:46;;;;;;;27.27;17.98;;;13.30;86.90;;;;;;5074449;28;20028;-82
2024/01/28 18:45:12;;;;;;;25.95;17.55;;;13.30;87.10;;;;;;5077321;28;20047;-85
2024/01/28 18:47:38;;;;;;;21.70;16.45;;;13.30;87.10;;;;;;5081963;28;20029;-85
2024/01/28 18:50:04;;;;;;;24.08;17.20;;;13.30;87.40;;;;;;5074970;28;20036;-81
2024/01/28 18:52:30;;;;;;;24.67;17.48;;;13.20;87.20;;;;;;5074778;28;20049;-81
2024/01/28 18:54:56;;;;;;;27.15;17.73;;;13.20;87.40;;;;;;5075039;28;20086;-84
2024/01/28 18:57:22;;;;;;;25.35;18.70;;;13.20;87.60;;;;;;5076211;28;20032;-80
2024/01/28 18:59:47;;;;;;;25.15;17.92;;;13.10;87.70;;;;;;5085543;28;20082;-77
2024/01/28 19:02:15;;;;;;;27.98;18.63;;;13.10;88.00;;;;;;5072807;28;20040;-78
2024/01/28 19:04:41;;;;;;;25.30;18.30;;;13.10;88.00;;;;;;5093627;28;20068;-79
2024/01/28 19:07:09;;;;;;;23.13;18.17;;;13.00;88.10;;;;;;5075148;28;20486;-81
2024/01/28 19:09:34;;;;;;;29.77;18.35;;;13.00;88.20;;;;;;5074323;28;20041;-78
2024/01/28 19:12:00;;;;;;;28.10;19.00;;;13.00;88.50;;;;;;5074181;28;20090;-80
2024/01/28 19:14:26;;;;;;;28.00;19.02;;;13.00;88.60;;;;;;5075185;28;20112;-79
2024/01/28 19:16:51;;;;;;;29.27;19.85;;;12.90;88.70;;;;;;5072658;28;20028;-78
2024/01/28 19:19:19;;;;;;;35.50;21.05;;;12.90;89.00;;;;;;5073839;28;20072;-78
2024/01/28 19:21:45;;;;;;;27.75;20.50;;;12.80;89.20;;;;;;5071345;28;20039;-79
2024/01/28 19:24:10;;;;;;;33.92;20.95;;;12.80;89.20;;;;;;5077135;28;20563;-81
2024/01/28 19:26:36;;;;;;;30.15;21.98;;;12.80;89.50;;;;;;5070003;28;20060;-81
2024/01/28 19:29:03;;;;;;;30.60;21.48;;;12.70;89.60;;;;;;5071822;28;20045;-82
2024/01/28 19:31:29;;;;;;;27.60;20.10;;;12.70;89.70;;;;;;5071292;28;20033;-80
2024/01/28 19:33:55;;;;;;;30.83;21.23;;;12.70;90.00;;;;;;5054799;28;20393;-71
2024/01/28 19:36:21;;;;;;;29.45;21.90;;;12.70;90.00;;;;;;5071394;28;20063;-71
2024/01/28 19:38:47;;;;;;;34.45;22.10;;;12.70;90.10;;;;;;5079802;28;20047;-72
2024/01/28 19:41:15;;;;;;;34.92;21.88;;;12.80;90.00;;;;;;5072962;28;20402;-71
2024/01/28 19:43:42;;;;;;;34.05;25.50;;;12.80;90.00;;;;;;5072827;28;20482;-71
2024/01/28 19:46:08;;;;;;;34.85;23.75;;;12.80;90.10;;;;;;5072772;28;20037;-77
2024/01/28 19:48:33;;;;;;;33.25;21.13;;;12.80;90.00;;;;;;5054354;28;20041;-70
2024/01/28 19:50:59;;;;;;;33.25;22.20;;;12.80;90.10;;;;;;5056944;28;20547;-71
2024/01/28 19:53:25;;;;;;;37.10;22.38;;;12.70;90.00;;;;;;5072632;28;20044;-73
2024/01/28 19:55:50;;;;;;;35.22;22.27;;;12.80;90.30;;;;;;5072898;28;20067;-72
2024/01/28 19:58:17;;;;;;;35.25;21.73;;;12.80;90.20;;;;;;5072896;28;20032;-74
2024/01/28 20:00:43;;;;;;;32.92;23.00;;;12.70;90.10;;;;;;5059930;28;20029;-73
2024/01/28 20:03:09;;;;;;;31.02;22.35;;;12.70;90.00;;;;;;5072245;28;20532;-72
2024/01/28 20:05:34;;;;;;;29.88;21.48;;;12.50;90.00;;;;;;5073123;28;20036;-72
2024/01/28 20:08:00;;;;;;;31.58;21.88;;;12.40;90.00;;;;;;5061849;28;20098;-72
2024/01/28 20:10:26;;;;;;;30.08;21.83;;;12.40;90.10;;;;;;5052739;28;20152;-70
2024/01/28 20:12:53;;;;;;;34.17;22.67;;;12.30;90.30;;;;;;5052744;28;20033;-72
2024/01/28 20:15:19;;;;;;;33.05;23.50;;;12.30;90.10;;;;;;5052612;28;20048;-71
2024/01/28 20:17:45;;;;;;;34.05;23.17;;;12.30;90.10;;;;;;5064125;28;20086;-70
2024/01/28 20:20:18;;;;;;;32.40;23.17;;;12.30;90.00;;;;;;5072516;28;20486;-70
2024/01/28 20:22:47;;;;;;;36.78;24.05;;;12.30;90.00;;;;;;5070404;28;20037;-71
2024/01/28 20:25:13;;;;;;;32.60;22.80;;;12.30;89.70;;;;;;5072987;28;20401;-70
2024/01/28 20:27:39;;;;;;;39.42;24.10;;;12.30;90.00;;;;;;5061844;28;20033;-71
2024/01/28 20:30:07;;;;;;;35.28;26.02;;;12.20;89.70;;;;;;5055803;28;20037;-71
2024/01/28 20:32:33;;;;;;;37.88;24.63;;;12.10;89.50;;;;;;5072294;28;20363;-71
2024/01/28 20:34:59;;;;;;;38.17;25.80;;;12.10;89.90;;;;;;5073781;28;20110;-68
2024/01/28 20:37:25;;;;;;;35.55;27.15;;;12.00;89.90;;;;;;5065845;28;20107;-79
2024/01/28 20:39:50;;;;;;;36.13;26.63;;;12.00;89.80;;;;;;5070775;28;20052;-78
2024/01/28 20:42:16;;;;;;;35.72;25.85;;;11.90;89.60;;;;;;5072060;28;20040;-78
2024/01/28 20:44:42;;;;;;;38.35;25.10;;;11.80;89.30;;;;;;5071402;28;20039;-78
2024/01/28 20:47:10;;;;;;;41.45;25.92;;;11.70;89.40;;;;;;5065286;28;20063;-81
2024/01/28 20:49:36;;;;;;;41.85;27.80;;;11.70;89.30;;;;;;5051982;28;20049;-80
2024/01/28 20:52:03;;;;;;;39.38;27.73;;;11.60;89.30;;;;;;5052428;28;20548;-77
2024/01/28 20:54:29;;;;;;;40.08;28.48;;;11.60;89.30;;;;;;5057723;28;20036;-78
2024/01/28 20:57:07;;;;;;;38.00;27.70;;;11.50;89.00;;;;;;5054924;28;20144;-78
2024/01/28 20:59:34;;;;;;;43.00;28.70;;;11.50;88.90;;;;;;5073494;28;20032;-77
2024/01/28 21:02:00;;;;;;;44.63;28.88;;;11.40;89.30;;;;;;5072110;28;20059;-78